Latest Weather Observations for South Johnstone

IDQ60801

Issued at 9:32 pm EST Sunday 19 February 2017 (issued every 30 minutes, with the page automatically refreshed every 10 minutes)

About weather observations | Map of weather stations | Latest weather observations for QLD | Other Formats
Station Details ID: 032037 Name: SOUTH JOHNSTONE EXP STN Lat: -17.61 Lon: 146.00 Height: 18.3 m
Data from the previous 72 hours. | See also: Recent months at South Johnstone
Date/Time
EST
Temp
°C
App
Temp
°C
Dew
Point
°C
Rel
Hum
%
Delta-T
°C
Wind Press
QNH
hPa
Press
MSL
hPa
Rain since
9am
mm
Dir  Spd
km/h
Gust
km/h
Spd
kts
Gust
kts
19/09:30pm 26.3 32.9 25.2 94 0.8 CALM 0 0 0 0 1009.9 - 0.0
19/09:00pm 26.4 33.0 25.3 94 0.8 CALM 0 0 0 0 1009.6 1009.5 0.0
19/08:30pm 26.7 33.2 25.0 90 1.2 CALM 0 0 0 0 1009.6 - 0.0
19/08:00pm 26.9 33.5 25.2 90 1.2 CALM 0 0 0 0 1009.1 - 0.0
19/07:30pm 27.1 33.8 25.4 90 1.2 CALM 0 0 0 0 1008.6 - 0.0
19/07:00pm 27.5 34.1 25.2 87 1.6 CALM 0 0 0 0 1008.3 - 0.0
19/06:30pm 28.0 34.6 25.2 85 2.0 CALM 0 0 0 0 1008.0 - 0.0
19/06:00pm 28.4 34.2 24.5 79 2.7 N 2 6 1 3 1007.5 1007.4 0.0
19/05:30pm 28.9 33.2 24.3 76 3.2 NE 9 15 5 8 1007.0 - 0.0
19/05:00pm 29.2 33.5 24.2 74 3.5 NE 9 11 5 6 1006.8 - 0.0
19/04:30pm 29.6 33.4 24.0 72 3.9 NNE 11 17 6 9 1006.9 - 0.0
19/04:00pm 30.5 33.6 22.9 64 5.2 NE 11 19 6 10 1006.8 - 0.0
19/03:30pm 31.3 34.5 23.7 64 5.3 NE 13 20 7 11 1006.9 - 0.0
19/03:00pm 31.5 34.6 22.8 60 6.0 ENE 11 19 6 10 1006.9 1006.8 0.0
19/02:30pm 31.6 35.0 23.4 61 5.7 ENE 11 20 6 11 1007.2 - 0.0
19/02:00pm 32.1 35.5 23.4 60 6.0 E 11 19 6 10 1007.3 - 0.0
19/01:30pm 32.0 35.3 22.5 57 6.5 SE 9 19 5 10 1007.8 - 0.0
19/01:00pm 31.8 35.9 23.9 63 5.5 NE 9 19 5 10 1008.4 - 0.0
19/12:30pm 31.4 35.6 24.1 65 5.1 E 9 19 5 10 1008.9 - 0.0
19/12:00pm 31.3 34.9 23.8 64 5.2 ENE 11 15 6 8 1009.2 1009.1 0.0
19/11:30am 30.9 34.7 23.5 64 5.1 E 9 17 5 9 1009.5 - 0.0
19/11:00am 31.3 35.3 22.0 57 6.3 SE 4 9 2 5 1009.7 - 0.0
19/10:30am 30.4 33.4 22.0 60 5.7 ENE 9 13 5 7 1010.2 - 0.0
19/10:00am 30.2 33.4 21.6 60 5.8 E 7 13 4 7 1010.3 - 0.0
19/09:30am 29.6 34.5 22.4 65 4.9 CALM 0 0 0 0 1010.4 - 0.0
19/09:00am 28.6 33.7 22.7 70 4.0 CALM 0 0 0 0 1010.4 1010.3 0.0
19/08:30am 27.1 32.5 23.3 80 2.6 CALM 0 0 0 0 1010.1 - 0.0
19/08:00am 25.3 30.3 23.2 88 1.4 NW 2 7 1 4 1009.9 - 0.0
19/07:30am 24.1 29.3 22.8 92 0.9 CALM 0 6 0 3 1010.0 - 0.0
19/07:00am 22.8 27.5 22.0 95 0.5 CALM 0 6 0 3 1009.6 - 0.0
19/06:30am 22.8 27.7 22.4 98 0.3 CALM 0 6 0 3 1009.3 - 0.0
19/06:00am 22.7 27.5 22.2 97 0.3 CALM 0 0 0 0 1009.0 1008.9 0.0
19/05:30am 22.9 27.9 22.5 98 0.3 CALM 0 0 0 0 1008.7 - 0.0
19/05:00am 23.0 28.1 22.6 98 0.3 CALM 0 6 0 3 1008.5 - 0.0
19/04:30am 23.3 28.4 22.7 96 0.4 CALM 0 6 0 3 1008.3 - 0.0
19/04:00am 23.2 28.4 22.8 98 0.3 CALM 0 7 0 4 1008.4 - 0.0
19/03:30am 23.4 28.6 22.8 96 0.4 CALM 0 0 0 0 1008.1 - 0.0
19/03:00am 23.4 28.6 22.8 96 0.4 CALM 0 0 0 0 1007.9 1007.8 0.0
19/02:30am 23.5 28.7 22.9 96 0.4 CALM 0 0 0 0 1008.2 - 0.0
19/02:00am 23.4 28.6 22.8 96 0.4 CALM 0 0 0 0 1008.8 - 0.0
19/01:30am 23.7 29.0 23.0 96 0.5 CALM 0 0 0 0 1009.2 - 0.0
19/01:00am 23.8 29.0 22.9 95 0.6 CALM 0 0 0 0 1009.7 - 0.0
19/12:30am 23.8 28.6 22.9 95 0.6 NW 2 9 1 5 1010.0 - 0.0
19/12:00am 24.0 29.3 23.1 95 0.6 CALM 0 6 0 3 1010.4 1010.3 0.0
 
Date/Time
EST
Temp
°C
App
Temp
°C
Dew
Point
°C
Rel
Hum
%
Delta-T
°C
Wind Press
QNH
hPa
Press
MSL
hPa
Rain since
9am
mm
Dir  Spd
km/h
Gust
km/h
Spd
kts
Gust
kts
18/11:30pm 23.8 28.4 23.1 96 0.5 W 4 11 2 6 1010.9 - 0.0
18/11:00pm 23.7 28.6 23.1 96 0.4 W 2 7 1 4 1010.8 - 0.0
18/10:30pm 23.8 28.0 23.1 96 0.5 W 6 9 3 5 1010.6 - 0.0
18/10:00pm 23.9 28.4 23.0 95 0.6 WNW 4 11 2 6 1010.6 - 0.0
18/09:30pm 24.1 28.7 23.2 95 0.6 W 4 7 2 4 1010.5 - 0.0
18/09:00pm 24.5 29.9 23.3 93 0.8 CALM 0 0 0 0 1010.6 1010.5 0.0
18/08:30pm 24.8 29.0 23.5 92 0.9 WSW 7 11 4 6 1010.6 - 0.0
18/08:00pm 25.5 31.2 23.7 90 1.2 CALM 0 0 0 0 1010.5 - 0.0
18/07:30pm 26.1 32.0 24.1 89 1.4 CALM 0 0 0 0 1010.4 - 0.0
18/07:00pm 26.6 32.3 23.7 84 2.0 CALM 0 0 0 0 1010.0 - 0.0
18/06:30pm 27.6 33.1 23.4 78 2.9 CALM 0 0 0 0 1009.7 - 0.0
18/06:00pm 28.1 33.0 23.1 74 3.4 NNE 2 7 1 4 1009.7 1009.6 0.0
18/05:30pm 28.8 32.1 22.5 68 4.3 NE 9 13 5 7 1009.1 - 0.0
18/05:00pm 29.4 32.8 22.7 67 4.6 NE 9 13 5 7 1008.6 - 0.0
18/04:30pm 29.0 32.5 22.9 69 4.2 E 9 13 5 7 1008.5 - 0.0
18/04:00pm 29.2 32.7 22.8 68 4.4 ENE 9 13 5 7 1008.7 - 0.0
18/03:30pm 29.2 32.7 22.8 68 4.4 ENE 9 15 5 8 1008.9 - 0.0
18/03:00pm 29.8 33.6 23.4 68 4.4 ENE 9 17 5 9 1009.3 1009.2 0.0
18/02:30pm 29.7 33.7 23.8 70 4.1 ENE 9 13 5 7 1009.6 - 0.0
18/02:00pm 30.3 34.3 23.7 68 4.6 ENE 9 13 5 7 1010.0 - 0.0
18/01:30pm 30.4 34.0 23.8 68 4.6 NE 11 19 6 10 1010.4 - 0.0
18/01:00pm 30.5 35.1 23.1 64 5.1 ESE 4 11 2 6 1010.6 - 0.0
18/12:30pm 30.6 34.1 22.9 63 5.3 NE 9 15 5 8 1011.2 - 0.0
18/12:00pm 30.9 36.3 23.8 66 4.9 ENE 2 9 1 5 1011.5 1011.4 0.0
18/11:30am 30.7 35.1 22.8 62 5.4 ENE 4 9 2 5 1011.9 - 0.0
18/11:00am 30.5 35.9 23.9 68 4.6 SE 2 15 1 8 1012.2 - 0.0
18/10:30am 29.3 34.9 24.3 74 3.5 SSE 2 7 1 4 1012.6 - 0.0
18/10:00am 28.5 34.6 24.5 79 2.8 CALM 0 0 0 0 1012.8 - 0.0
18/09:30am 27.8 33.8 24.3 81 2.4 CALM 0 4 0 2 1012.9 - 0.0
18/09:00am 26.4 32.5 24.4 89 1.4 CALM 0 0 0 0 1012.9 1012.8 1.0
18/08:30am 25.1 30.3 23.6 91 1.0 WNW 2 7 1 4 1012.9 - 1.0
18/08:00am 24.0 29.3 23.1 95 0.6 CALM 0 0 0 0 1012.7 - 1.0
18/07:30am 23.4 28.5 22.7 96 0.5 CALM 0 0 0 0 1012.6 - 1.0
18/07:00am 22.9 27.8 22.3 96 0.4 CALM 0 0 0 0 1012.4 - 1.0
18/06:30am 22.7 27.5 22.2 97 0.3 CALM 0 0 0 0 1012.1 - 1.0
18/06:00am 22.6 27.4 22.1 97 0.3 CALM 0 0 0 0 1011.7 1011.6 1.0
18/05:30am 22.5 27.2 22.0 97 0.3 CALM 0 2 0 1 1011.4 - 1.0
18/05:00am 22.5 27.2 22.0 97 0.3 CALM 0 0 0 0 1011.4 - 1.0
18/04:30am 22.5 27.2 21.9 96 0.4 CALM 0 6 0 3 1011.3 - 1.0
18/04:00am 22.5 27.2 21.9 96 0.4 CALM 0 6 0 3 1011.4 - 1.0
18/03:30am 22.5 26.8 21.9 96 0.4 W 2 7 1 4 1011.3 - 1.0
18/03:00am 22.5 27.2 22.0 97 0.3 CALM 0 0 0 0 1011.2 1011.1 1.0
18/02:30am 22.7 27.5 22.2 97 0.3 CALM 0 0 0 0 1011.4 - 1.0
18/02:00am 22.7 27.5 22.1 96 0.4 CALM 0 7 0 4 1011.5 - 1.0
18/01:30am 22.8 27.6 22.2 96 0.4 CALM 0 0 0 0 1011.8 - 1.0
18/01:00am 23.1 28.1 22.5 96 0.4 CALM 0 0 0 0 1012.0 - 1.0
18/12:30am 23.2 27.1 22.5 96 0.5 WSW 6 9 3 5 1012.3 - 1.0
18/12:00am 23.2 28.3 22.6 96 0.4 CALM 0 0 0 0 1012.7 1012.6 1.0
 
Date/Time
EST
Temp
°C
App
Temp
°C
Dew
Point
°C
Rel
Hum
%
Delta-T
°C
Wind Press
QNH
hPa
Press
MSL
hPa
Rain since
9am
mm
Dir  Spd
km/h
Gust
km/h
Spd
kts
Gust
kts
17/11:30pm 23.5 28.7 22.9 96 0.4 CALM 0 0 0 0 1013.1 - 1.0
17/11:00pm 23.5 28.7 22.8 96 0.5 CALM 0 6 0 3 1013.5 - 1.0
17/10:30pm 23.8 29.2 23.2 96 0.4 CALM 0 0 0 0 1013.3 - 1.0
17/10:00pm 23.6 28.3 22.7 95 0.6 WSW 2 7 1 4 1012.8 - 1.0
17/09:30pm 24.1 29.6 23.4 96 0.5 CALM 0 0 0 0 1012.7 - 1.0
17/09:00pm 24.4 30.1 23.7 96 0.5 CALM 0 0 0 0 1012.8 1012.7 1.0
17/08:30pm 24.6 30.3 23.7 95 0.6 CALM 0 6 0 3 1012.8 - 1.0
17/08:00pm 24.8 29.5 23.9 95 0.6 WSW 6 9 3 5 1012.6 - 1.0
17/07:30pm 25.1 30.3 23.5 91 1.1 WSW 2 9 1 5 1012.6 - 1.0
17/07:00pm 25.2 31.2 24.2 94 0.7 CALM 0 6 0 3 1012.6 - 1.0
17/06:30pm 25.3 31.3 24.3 94 0.7 CALM 0 0 0 0 1012.6 - 1.0
17/06:00pm 25.5 31.5 24.3 93 0.8 CALM 0 0 0 0 1012.4 1012.3 1.0
17/05:30pm 25.6 31.6 24.3 92 0.9 CALM 0 0 0 0 1012.2 - 1.0
17/05:00pm 25.7 31.7 24.2 91 1.0 CALM 0 0 0 0 1012.1 - 1.0
17/04:30pm 25.8 31.8 24.2 91 1.1 CALM 0 7 0 4 1011.9 - 1.0
17/04:00pm 25.9 31.3 24.5 92 1.0 W 4 9 2 5 1012.0 - 1.0
17/03:30pm 26.0 32.1 24.4 91 1.1 CALM 0 0 0 0 1012.2 - 0.8
17/03:00pm 27.0 31.2 23.2 80 2.6 ESE 6 11 3 6 1012.5 1012.4 0.6
17/02:30pm 27.1 32.3 22.8 77 2.9 CALM 0 6 0 3 1012.7 - 0.6
17/02:00pm 27.2 31.5 22.6 76 3.1 E 4 13 2 7 1013.1 - 0.6
17/01:30pm 27.1 31.4 23.6 81 2.4 SE 7 13 4 7 1013.3 - 0.6
17/01:00pm 27.1 31.5 24.4 85 1.9 S 9 15 5 8 1013.5 - 0.6
17/12:30pm 26.3 29.9 23.8 86 1.7 SSE 11 19 6 10 1013.9 - 0.6
17/12:00pm 26.8 32.1 23.7 83 2.1 SSE 2 13 1 7 1014.0 1013.9 0.6
17/11:30am 26.3 32.2 24.1 88 1.5 CALM 0 0 0 0 1013.9 - 0.4
17/11:00am 25.4 31.0 23.5 89 1.3 CALM 0 9 0 5 1014.0 - 0.4
17/10:30am 25.0 29.1 24.0 94 0.7 NE 9 17 5 9 1014.2 - 0.4
17/08:30am 24.5 29.0 23.9 96 0.4 WSW 7 13 4 7 1013.4 - 32.2
17/08:00am 23.8 29.3 23.4 98 0.3 CALM 0 0 0 0 1013.1 - 32.2
17/07:30am 23.4 28.7 23.0 98 0.3 CALM 0 6 0 3 1013.0 - 31.8
17/07:00am 23.3 27.3 22.7 96 0.4 NE 6 11 3 6 1012.9 - 30.0
17/06:30am 23.1 27.0 22.5 96 0.4 SSW 6 9 3 5 1012.0 - 29.6
17/06:00am 23.1 26.9 22.4 96 0.5 W 6 9 3 5 1011.7 1011.6 27.8
17/05:30am 22.9 26.1 22.3 96 0.4 WSW 9 13 5 7 1011.4 - 27.8
17/05:00am 23.0 27.3 22.6 98 0.3 W 4 7 2 4 1011.3 - 27.8
17/04:30am 23.1 28.1 22.5 96 0.4 CALM 0 0 0 0 1011.1 - 27.8
17/04:00am 23.0 26.2 22.4 96 0.4 WSW 9 13 5 7 1010.8 - 27.8
17/03:30am 23.0 27.9 22.4 96 0.4 CALM 0 0 0 0 1011.0 - 27.8
17/03:00am 22.9 27.8 22.3 96 0.4 CALM 0 0 0 0 1010.9 1010.8 27.8
17/02:30am 23.1 28.0 22.4 96 0.5 CALM 0 0 0 0 1010.7 - 27.8
17/02:00am 23.0 27.9 22.4 96 0.4 CALM 0 0 0 0 1010.9 - 27.8
17/01:30am 23.2 27.8 22.5 96 0.5 WNW 2 9 1 5 1011.1 - 27.8
17/01:00am 23.2 26.5 22.5 96 0.5 SW 9 15 5 8 1011.5 - 27.6
17/12:30am 23.4 28.6 22.8 96 0.4 CALM 0 0 0 0 1011.6 - 27.6
17/12:00am 23.8 27.1 22.5 92 0.9 SW 9 11 5 6 1011.7 1011.6 27.4
 
Date/Time
EST
Temp
°C
App
Temp
°C
Dew
Point
°C
Rel
Hum
%
Delta-T
°C
Wind Press
QNH
hPa
Press
MSL
hPa
Rain since
9am
mm
Dir  Spd
km/h
Gust
km/h
Spd
kts
Gust
kts
16/11:30pm 23.6 26.9 22.6 94 0.7 SW 9 13 5 7 1012.3 - 27.4
16/11:00pm 23.6 27.2 23.0 96 0.4 SW 9 11 5 6 1013.0 - 27.4
16/10:30pm 24.1 29.8 23.7 98 0.3 CALM 0 0 0 0 1013.6 - 27.4
16/10:00pm 24.3 30.0 23.7 96 0.4 CALM 0 2 0 1 1014.0 - 26.8

Other Formats:

Comma delimited format used in spreadsheet applications
http://www.bom.gov.au/fwo/IDQ60801/IDQ60801.95292.axf

JavaScript Object Notation format (JSON) in row-major order
http://www.bom.gov.au/fwo/IDQ60801/IDQ60801.95292.json